PLK weather

M. Graham Clark Downtown Airport
Branson / Hollister, Missouri, United States

Public forecast

Using degrees Fahrenheit for public forecast. Weather courtesy of forecast.io.

Closest aviation weather report (METAR) to M. Graham Clark Downtown Airport

Closest report is Boone County Airport, 22.2 nm (41.1 km) S. Retrieved 2019/10/22 01:53 UTC (27 minutes ago):

KHRO 220153Z AUTO 24006KT 10SM CLR 13/02 A2988 RMK AO2 SLP113 T01280017

Closest aviation forecast (TAF) to M. Graham Clark Downtown Airport

Closest forecast is Boone County Airport, 22.2 nm (41.1 km) S. Retrieved 2019-10-22 00:22 UTC (2 hours ago):

TAF KHRO 212320Z 2200/2224 26008KT P6SM SKC FM221300 29012G17KT P6SM SKC